Cleveland, Tennessee
Current Conditions -  °F | °C
As of 9:15 AM on Thursday 27 Nov 2014 (Local Time) from KRZR Reporting Station
Broken Clouds Broken Clouds  
Wind Chill: 32°   Ceiling: 3500
Heat Index: 39°   Visibility: 10mi
Dew Point: 27°   Wind: 12mph
Humidity: 61%   Direction: 330°NNW
Pressure: 30.25"   Gusts: NA
Location:  35.16°N, 84.87°W
Report Text: KRZR 271415Z AUTO 33010KT 300V020 10SM SCT030 BKN035 04/M03 A3025 RMK
Loading
Personal Weather Stations






























Interactive Weather Map New forecast layout! Learn more

10-Day Weather Forecast

Advertisements
Track Severe Weather on mobile